Time;durP1;ratioP1;P1;durP2;ratioP2;P2;SDS_P1;SDS_P2;PMS_P1;PMS_P2;Temp;Humidity;BMP_temperature;BMP_pressure;BME280_temperature;BME280_humidity;BME280_pressure;Samples;Min_cycle;Max_cycle;Signal;HPM_P1;HPM_P2
2022/11/21 00:00:53;;;;;;;27.63;17.58;;;;;;;3.97;100.00;100526.38;5005503;28;20045;-67
2022/11/21 00:03:19;;;;;;;29.60;17.90;;;;;;;3.95;100.00;100530.84;5014441;28;20064;-67
2022/11/21 00:05:47;;;;;;;32.80;18.38;;;;;;;4.00;100.00;100533.09;5016968;28;20060;-66
2022/11/21 00:08:16;;;;;;;27.80;17.60;;;;;;;3.97;100.00;100544.53;5015766;28;20053;-67
2022/11/21 00:10:42;;;;;;;;;;;;;;;3.93;100.00;100543.91;5024488;28;20279;-67
2022/11/21 00:13:15;;;;;;;31.83;17.25;;;;;;;3.95;100.00;100538.63;5008647;28;20304;-67
2022/11/21 00:15:41;;;;;;;29.10;17.75;;;;;;;3.90;100.00;100538.13;5014272;28;20057;-66
2022/11/21 00:18:10;;;;;;;26.80;16.48;;;;;;;3.91;100.00;100545.78;5008671;28;20087;-66
2022/11/21 00:20:36;;;;;;;;;;;;;;;3.95;100.00;100536.03;5003112;28;20454;-66
2022/11/21 00:23:03;;;;;;;26.70;15.25;;;;;;;3.88;100.00;100534.81;5014611;28;19932;-66
2022/11/21 00:25:30;;;;;;;28.83;16.52;;;;;;;3.90;100.00;100545.91;5008852;28;20698;-67
2022/11/21 00:27:56;;;;;;;25.65;16.02;;;;;;;3.87;100.00;100543.53;5011144;28;20049;-66
2022/11/21 00:30:23;;;;;;;25.85;15.85;;;;;;;3.87;100.00;100541.78;5009809;28;20099;-68
2022/11/21 00:32:50;;;;;;;24.58;15.18;;;;;;;3.87;100.00;100543.53;5012787;28;20068;-67
2022/11/21 00:35:16;;;;;;;27.52;16.30;;;;;;;3.86;100.00;100537.53;5019480;28;20053;-67
2022/11/21 00:37:43;;;;;;;26.17;16.05;;;;;;;3.89;100.00;100532.09;5010854;28;20057;-67
2022/11/21 00:40:09;;;;;;;24.67;16.02;;;;;;;3.87;100.00;100533.16;4980432;28;20119;-67
2022/11/21 00:42:36;;;;;;;29.30;16.70;;;;;;;3.85;100.00;100537.63;5004774;28;20061;-68
2022/11/21 00:45:02;;;;;;;26.70;15.43;;;;;;;3.86;100.00;100539.28;5013048;28;20053;-67
2022/11/21 00:47:29;;;;;;;27.65;16.13;;;;;;;3.84;100.00;100536.81;5008928;28;20061;-68
2022/11/21 00:49:55;;;;;;;25.20;16.27;;;;;;;3.84;100.00;100546.34;5004513;28;20061;-67
2022/11/21 00:52:22;;;;;;;25.67;15.50;;;;;;;3.81;100.00;100544.00;5012849;28;20107;-67
2022/11/21 00:54:48;;;;;;;26.50;15.85;;;;;;;3.86;100.00;100549.66;5008207;28;20076;-67
2022/11/21 00:57:14;;;;;;;24.33;15.43;;;;;;;3.84;100.00;100539.41;5019027;28;20501;-67
2022/11/21 00:59:41;;;;;;;24.23;15.18;;;;;;;3.85;100.00;100538.47;5007422;28;20045;-67
2022/11/21 01:02:07;;;;;;;24.60;15.40;;;;;;;3.85;100.00;100540.22;5006785;28;20099;-67
2022/11/21 01:04:34;;;;;;;29.48;16.95;;;;;;;3.88;100.00;100546.03;5012631;28;20076;-67
2022/11/21 01:07:00;;;;;;;26.08;15.95;;;;;;;3.88;100.00;100550.38;5004942;28;20053;-67
2022/11/21 01:09:27;;;;;;;28.83;16.25;;;;;;;3.90;100.00;100559.72;5011158;28;20177;-67
2022/11/21 01:11:54;;;;;;;28.42;17.08;;;;;;;3.95;100.00;100551.59;5009487;28;20075;-67
2022/11/21 01:14:20;;;;;;;31.45;17.45;;;;;;;3.90;100.00;100551.09;5009944;28;20119;-67
2022/11/21 01:16:47;;;;;;;29.50;18.10;;;;;;;3.90;100.00;100554.53;5005322;28;20127;-67
2022/11/21 01:19:14;;;;;;;29.40;17.35;;;;;;;3.91;100.00;100552.75;5011618;28;20045;-67
2022/11/21 01:21:40;;;;;;;29.48;18.25;;;;;;;3.87;100.00;100554.75;5011349;28;20504;-68
2022/11/21 01:24:10;;;;;;;26.98;16.77;;;;;;;3.90;100.00;100564.91;5002752;28;20049;-67
2022/11/21 01:26:37;;;;;;;28.27;17.48;;;;;;;3.85;100.00;100563.59;5010292;28;20049;-67
2022/11/21 01:29:04;;;;;;;28.60;17.75;;;;;;;3.85;100.00;100548.84;5001436;28;20081;-67
2022/11/21 01:31:30;;;;;;;27.60;17.42;;;;;;;3.81;100.00;100537.03;4994228;28;20057;-67
2022/11/21 01:33:58;;;;;;;22.60;14.27;;;;;;;3.80;100.00;100543.13;5009763;28;20064;-66
2022/11/21 01:36:27;;;;;;;27.30;16.05;;;;;;;3.84;100.00;100552.38;5007388;28;20056;-67
2022/11/21 01:38:56;;;;;;;28.20;16.67;;;;;;;3.84;100.00;100551.53;5014204;28;20054;-66
2022/11/21 01:41:30;;;;;;;28.17;16.73;;;;;;;3.87;100.00;100559.13;4999322;28;20108;-70
2022/11/21 01:43:57;;;;;;;26.98;16.05;;;;;;;3.87;100.00;100553.91;5004521;28;20064;-68
2022/11/21 01:46:24;;;;;;;27.42;16.60;;;;;;;3.89;100.00;100554.63;5010422;28;20498;-67
2022/11/21 01:48:56;;;;;;;27.83;17.23;;;;;;;3.90;100.00;100545.91;5015438;28;20053;-67
2022/11/21 01:51:29;;;;;;;28.45;16.27;;;;;;;3.85;100.00;100548.84;5015053;28;20077;-67
2022/11/21 01:54:06;;;;;;;26.35;15.88;;;;;;;3.87;100.00;100544.38;4995821;28;20046;-67
2022/11/21 01:56:43;;;;;;;29.00;16.85;;;;;;;3.83;100.00;100545.53;5009020;28;20049;-66
2022/11/21 01:59:16;;;;;;;30.45;17.45;;;;;;;3.80;100.00;100547.50;4998892;28;20804;-67
2022/11/21 02:01:45;;;;;;;28.63;16.40;;;;;;;3.80;100.00;100555.28;5012066;28;20650;-67
2022/11/21 02:04:11;;;;;;;32.08;17.15;;;;;;;3.77;100.00;100553.75;5008739;28;20049;-67
2022/11/21 02:06:38;;;;;;;28.52;16.95;;;;;;;3.82;100.00;100556.00;5013342;28;20057;-67
2022/11/21 02:09:05;;;;;;;29.90;17.92;;;;;;;3.80;100.00;100550.91;5002817;28;20081;-67
2022/11/21 02:11:32;;;;;;;28.63;17.63;;;;;;;3.78;100.00;100550.19;5002484;28;20049;-67
2022/11/21 02:13:59;;;;;;;30.00;17.23;;;;;;;3.82;100.00;100554.22;5011537;28;20057;-67
2022/11/21 02:16:26;;;;;;;31.85;18.20;;;;;;;3.82;100.00;100550.81;5005449;28;20046;-67
2022/11/21 02:18:53;;;;;;;31.77;17.50;;;;;;;3.80;100.00;100540.53;5003659;28;20050;-67
2022/11/21 02:21:26;;;;;;;29.70;16.92;;;;;;;3.79;100.00;100540.69;5009298;28;20077;-67
2022/11/21 02:24:03;;;;;;;30.48;18.17;;;;;;;3.83;100.00;100555.09;5006649;28;20046;-67
2022/11/21 02:26:30;;;;;;;29.00;17.15;;;;;;;3.70;100.00;100562.88;5004688;28;20053;-67
2022/11/21 02:28:57;;;;;;;32.97;17.92;;;;;;;3.73;100.00;100562.69;5012674;28;20061;-67
2022/11/21 02:31:23;;;;;;;31.27;16.88;;;;;;;3.66;100.00;100557.09;5014330;28;20061;-68
2022/11/21 02:33:50;;;;;;;32.22;18.60;;;;;;;3.68;100.00;100552.63;5005089;28;20049;-67
2022/11/21 02:36:42;;;;;;;33.53;18.90;;;;;;;3.80;100.00;100553.50;5008171;28;20422;-66
2022/11/21 02:39:15;;;;;;;29.20;17.15;;;;;;;3.82;100.00;100559.41;5002864;28;20080;-66
2022/11/21 02:42:25;;;;;;;31.70;17.23;;;;;;;3.80;100.00;100553.50;5006644;28;20107;-67
2022/11/21 02:45:21;;;;;;;33.55;17.60;;;;;;;3.81;100.00;100560.38;5005203;28;20446;-67
2022/11/21 02:47:50;;;;;;;31.50;17.65;;;;;;;3.79;100.00;100549.28;5018719;28;20049;-67
2022/11/21 02:50:26;;;;;;;33.85;19.15;;;;;;;3.86;100.00;100555.69;5015669;28;20529;-67
2022/11/21 02:52:54;;;;;;;33.28;18.67;;;;;;;3.79;100.00;100546.69;5019034;28;20059;-67
2022/11/21 02:55:22;;;;;;;31.13;18.67;;;;;;;3.83;100.00;100534.31;5010717;28;20077;-66
2022/11/21 02:57:48;;;;;;;35.08;20.05;;;;;;;3.81;100.00;100531.00;5018643;28;20049;-67
2022/11/21 03:00:15;;;;;;;31.85;18.58;;;;;;;3.84;100.00;100536.81;5017333;28;20053;-68
2022/11/21 03:02:42;;;;;;;34.47;19.65;;;;;;;3.79;100.00;100528.53;5011712;28;20053;-67
2022/11/21 03:05:11;;;;;;;34.90;19.52;;;;;;;3.81;100.00;100531.00;5023667;28;20053;-67
2022/11/21 03:07:37;;;;;;;35.53;19.33;;;;;;;3.76;100.00;100528.72;5010453;28;20057;-66
2022/11/21 03:10:04;;;;;;;38.15;19.90;;;;;;;3.72;100.00;100522.97;5023776;28;20060;-67
2022/11/21 03:12:30;;;;;;;33.88;18.30;;;;;;;3.63;100.00;100523.59;5019490;28;20041;-66
2022/11/21 03:14:57;;;;;;;35.38;18.30;;;;;;;3.62;100.00;100527.13;5013191;28;20049;-67
2022/11/21 03:17:23;;;;;;;36.05;19.45;;;;;;;3.60;100.00;100531.59;5015588;28;20045;-67
2022/11/21 03:19:49;;;;;;;32.88;18.23;;;;;;;3.63;100.00;100522.78;5017273;28;20072;-67
2022/11/21 03:22:16;;;;;;;38.53;20.20;;;;;;;3.62;100.00;100523.69;4994530;28;20424;-67
2022/11/21 03:24:42;;;;;;;36.40;19.00;;;;;;;3.59;100.00;100529.09;5009206;28;20099;-67
2022/11/21 03:27:08;;;;;;;33.38;19.17;;;;;;;3.53;100.00;100531.19;5004457;28;20096;-67
2022/11/21 03:29:35;;;;;;;34.40;19.02;;;;;;;3.56;100.00;100523.19;5021641;28;20050;-67
2022/11/21 03:32:02;;;;;;;36.17;20.30;;;;;;;3.58;100.00;100515.31;5011435;28;20060;-67
2022/11/21 03:34:28;;;;;;;33.42;19.10;;;;;;;3.59;100.00;100508.34;5007108;28;20076;-66
2022/11/21 03:36:55;;;;;;;30.98;17.77;;;;;;;3.54;100.00;100506.91;4996232;28;20057;-66
2022/11/21 03:39:21;;;;;;;33.13;19.30;;;;;;;3.59;100.00;100508.34;5015039;28;20089;-67
2022/11/21 03:41:48;;;;;;;32.78;19.45;;;;;;;3.55;100.00;100506.00;4994551;28;20045;-67
2022/11/21 03:44:14;;;;;;;32.15;18.13;;;;;;;3.62;100.00;100506.38;5028046;28;20520;-67
2022/11/21 03:46:44;;;;;;;31.67;18.80;;;;;;;3.67;100.00;100508.66;5014328;28;20045;-68
2022/11/21 03:49:12;;;;;;;32.72;18.20;;;;;;;3.63;100.00;100515.00;5007649;28;20049;-66
2022/11/21 03:51:39;;;;;;;39.92;21.67;;;;;;;3.63;100.00;100515.81;5007620;28;20053;-67
2022/11/21 03:54:06;;;;;;;34.10;19.02;;;;;;;3.63;100.00;100507.22;5003563;28;20046;-67
2022/11/21 03:56:32;;;;;;;33.17;18.13;;;;;;;3.48;100.00;100516.91;5012076;28;20426;-68
2022/11/21 03:58:59;;;;;;;37.55;18.55;;;;;;;3.48;100.00;100504.75;5019339;28;20060;-67
2022/11/21 04:01:25;;;;;;;35.17;20.20;;;;;;;3.50;100.00;100505.47;5011812;28;20545;-67
2022/11/21 04:03:52;;;;;;;30.98;16.30;;;;;;;3.46;100.00;100516.19;5014460;28;20844;-67
2022/11/21 04:06:21;;;;;;;37.67;18.50;;;;;;;3.43;100.00;100521.56;5008695;28;20517;-68
2022/11/21 04:08:48;;;;;;;33.95;16.83;;;;;;;3.38;100.00;100526.25;5018481;28;20056;-66
2022/11/21 04:11:15;;;;;;;34.83;18.45;;;;;;;3.40;100.00;100529.56;5021064;28;20063;-67
2022/11/21 04:13:41;;;;;;;38.08;19.05;;;;;;;3.43;100.00;100539.72;5026537;28;20053;-66
2022/11/21 04:16:08;;;;;;;37.45;17.80;;;;;;;3.46;100.00;100529.97;5027098;28;20052;-66
2022/11/21 04:18:35;;;;;;;35.47;17.98;;;;;;;3.47;100.00;100523.84;5017171;28;20064;-67
2022/11/21 04:21:04;;;;;;;34.30;17.90;;;;;;;3.41;100.00;100520.84;5021714;28;20068;-68
2022/11/21 04:23:30;;;;;;;29.98;16.90;;;;;;;3.31;100.00;100526.69;5016064;28;20216;-68
2022/11/21 04:25:57;;;;;;;32.35;17.08;;;;;;;3.28;100.00;100531.25;5019211;28;20123;-67
2022/11/21 04:28:23;;;;;;;31.58;16.95;;;;;;;3.32;100.00;100522.34;5009539;28;20053;-67
2022/11/21 04:30:50;;;;;;;33.22;17.17;;;;;;;3.38;100.00;100513.31;5019393;28;20757;-67
2022/11/21 04:33:20;;;;;;;31.73;16.00;;;;;;;3.34;100.00;100516.09;5004159;28;20057;-67
2022/11/21 04:35:46;;;;;;;36.67;19.13;;;;;;;3.35;100.00;100507.41;5023042;28;20093;-67
2022/11/21 04:38:13;;;;;;;33.85;17.75;;;;;;;3.38;100.00;100511.53;5026332;28;20684;-67
2022/11/21 04:40:41;;;;;;;37.50;18.27;;;;;;;3.27;100.00;100507.06;5016568;28;20053;-67
2022/11/21 04:43:07;;;;;;;36.30;17.42;;;;;;;3.25;100.00;100510.72;5025517;28;20469;-67
2022/11/21 04:45:34;;;;;;;38.50;18.58;;;;;;;3.30;100.00;100496.50;5014176;28;20084;-67
2022/11/21 04:48:00;;;;;;;36.28;18.00;;;;;;;3.36;100.00;100500.44;5016351;28;20057;-67
2022/11/21 04:50:27;;;;;;;41.20;20.08;;;;;;;3.41;100.00;100502.69;5025691;28;20053;-67
2022/11/21 04:52:55;;;;;;;40.72;19.63;;;;;;;3.47;100.00;100497.06;5018555;28;20324;-66
2022/11/21 04:55:26;;;;;;;39.75;18.15;;;;;;;3.47;100.00;100494.47;5013070;28;20766;-67
2022/11/21 04:57:52;;;;;;;42.30;20.02;;;;;;;3.45;100.00;100494.63;5011444;28;20057;-67
2022/11/21 05:00:20;;;;;;;44.78;20.83;;;;;;;3.42;100.00;100500.00;5020574;28;20053;-67
2022/11/21 05:02:50;;;;;;;38.50;18.50;;;;;;;3.42;100.00;100487.03;5022090;28;20049;-67
2022/11/21 05:05:16;;;;;;;42.85;20.52;;;;;;;3.47;100.00;100486.69;5015720;28;20054;-67
2022/11/21 05:07:42;;;;;;;40.28;19.13;;;;;;;3.45;100.00;100486.84;5022822;28;20061;-67
2022/11/21 05:10:09;;;;;;;40.33;18.92;;;;;;;3.51;100.00;100486.41;5019862;28;20053;-67
2022/11/21 05:15:20;;;;;;;42.97;20.38;;;;;;;3.53;100.00;100489.72;5015330;28;20060;-70
2022/11/21 05:17:50;;;;;;;42.03;20.10;;;;;;;3.54;100.00;100491.34;5016781;28;20457;-67
2022/11/21 05:20:17;;;;;;;43.92;19.55;;;;;;;3.54;100.00;100480.16;5016769;28;20896;-67
2022/11/21 05:22:48;;;;;;;45.97;21.60;;;;;;;3.56;100.00;100478.28;5002587;28;20172;-67
2022/11/21 05:25:15;;;;;;;54.95;23.27;;;;;;;3.47;100.00;100491.88;5010135;28;20057;-67
2022/11/21 05:27:42;;;;;;;49.47;22.67;;;;;;;3.49;100.00;100503.84;5009090;28;20108;-67
2022/11/21 05:30:10;;;;;;;55.47;23.92;;;;;;;3.49;100.00;100496.06;5021316;28;20493;-67
2022/11/21 05:32:36;;;;;;;62.77;22.37;;;;;;;3.49;100.00;100495.19;5007835;28;20049;-67
2022/11/21 05:35:03;;;;;;;55.10;23.58;;;;;;;3.56;100.00;100486.06;5024186;28;20063;-67
2022/11/21 05:37:29;;;;;;;59.58;23.58;;;;;;;3.58;100.00;100489.38;5027233;28;20053;-67
2022/11/21 05:39:56;;;;;;;53.10;23.80;;;;;;;3.60;100.00;100490.09;5008287;28;20164;-67
2022/11/21 05:43:44;;;;;;;58.85;24.88;;;;;;;3.47;100.00;100492.75;5007697;28;20111;-66
2022/11/21 05:45:09;;;;;;;54.15;21.45;;;;;;;3.47;100.00;100484.97;5010829;28;20068;-67
2022/11/21 05:47:35;;;;;;;64.40;24.08;;;;;;;3.52;100.00;100480.25;5010219;28;20069;-67
2022/11/21 05:50:02;;;;;;;46.08;20.98;;;;;;;3.50;100.00;100474.34;5015664;28;20057;-66
2022/11/21 05:52:28;;;;;;;63.72;22.85;;;;;;;3.51;100.00;100482.97;5010174;28;20498;-67
2022/11/21 05:54:55;;;;;;;57.53;22.05;;;;;;;3.53;100.00;100481.94;5022119;28;20049;-66
2022/11/21 05:57:21;;;;;;;51.80;22.33;;;;;;;3.54;100.00;100478.38;5014482;28;20057;-67
2022/11/21 05:59:48;;;;;;;55.70;22.08;;;;;;;3.58;100.00;100479.00;5025279;28;20053;-67
2022/11/21 06:04:59;;;;;;;64.97;20.38;;;;;;;3.41;100.00;100467.25;5024790;28;20076;-67
2022/11/21 06:07:25;;;;;;;49.35;21.30;;;;;;;3.35;100.00;100457.28;5000850;28;20052;-67
2022/11/21 06:09:51;;;;;;;59.47;21.73;;;;;;;3.35;100.00;100449.50;5023308;28;20052;-67
2022/11/21 06:12:18;;;;;;;45.17;20.30;;;;;;;3.42;100.00;100447.31;5004702;28;20046;-67
2022/11/21 06:14:50;;;;;;;50.17;21.70;;;;;;;3.45;100.00;100444.50;5014363;28;20477;-67
2022/11/21 06:17:17;;;;;;;55.20;22.67;;;;;;;3.46;100.00;100439.22;5018359;28;20046;-67
2022/11/21 06:19:43;;;;;;;58.83;22.13;;;;;;;3.53;100.00;100437.84;5012434;28;20050;-67
2022/11/21 06:22:10;;;;;;;54.55;22.17;;;;;;;3.58;100.00;100434.09;5016292;28;20545;-68
2022/11/21 06:24:36;;;;;;;82.85;23.83;;;;;;;3.50;100.00;100434.63;5009427;28;20127;-67
2022/11/21 06:27:03;;;;;;;91.68;23.90;;;;;;;3.48;100.00;100449.47;5004384;28;20049;-66
2022/11/21 06:29:29;;;;;;;60.63;21.08;;;;;;;3.46;100.00;100444.41;5020405;28;20057;-68
2022/11/21 06:31:55;;;;;;;47.72;20.65;;;;;;;3.40;100.00;100441.41;5015951;28;20068;-67
2022/11/21 06:34:24;;;;;;;58.22;22.05;;;;;;;3.43;100.00;100446.38;5022812;28;20087;-66
2022/11/21 06:36:51;;;;;;;42.97;20.55;;;;;;;3.44;100.00;100441.09;5016675;28;20102;-67
2022/11/21 06:39:18;;;;;;;52.65;22.42;;;;;;;3.50;100.00;100437.22;5013291;28;20045;-67
2022/11/21 06:41:49;;;;;;;51.22;21.80;;;;;;;3.40;100.00;100437.06;5014508;28;20061;-67
2022/11/21 06:44:17;;;;;;;51.90;21.15;;;;;;;3.45;100.00;100441.91;5022163;28;20595;-67
2022/11/21 06:46:44;;;;;;;42.83;19.85;;;;;;;3.33;100.00;100446.19;5023290;28;20053;-67
2022/11/21 06:49:16;;;;;;;52.05;20.00;;;;;;;3.32;100.00;100437.59;5009249;28;20052;-66
2022/11/21 06:51:43;;;;;;;40.75;18.17;;;;;;;3.38;100.00;100443.28;4991582;28;20467;-67
2022/11/21 06:54:09;;;;;;;46.13;19.85;;;;;;;3.41;100.00;100430.09;5014325;28;20128;-67
2022/11/21 06:56:41;;;;;;;40.47;18.13;;;;;;;3.46;100.00;100423.66;5011483;28;20140;-67
2022/11/21 06:59:08;;;;;;;35.90;18.10;;;;;;;3.48;100.00;100431.31;5008547;28;20463;-67
2022/11/21 07:01:34;;;;;;;39.00;19.52;;;;;;;3.51;100.00;100423.34;5016295;28;20060;-67
2022/11/21 07:04:01;;;;;;;36.70;18.10;;;;;;;3.56;100.00;100426.41;5014680;28;20045;-67
2022/11/21 07:06:27;;;;;;;33.67;16.08;;;;;;;3.55;100.00;100422.19;5008560;28;20049;-67
2022/11/21 07:08:54;;;;;;;37.15;18.30;;;;;;;3.60;100.00;100408.88;5015330;28;20053;-66
2022/11/21 07:11:40;;;;;;;34.22;16.75;;;;;;;3.66;100.00;100423.97;5020714;28;20085;-67
2022/11/21 07:14:06;;;;;;;34.17;17.50;;;;;;;3.66;100.00;100422.19;5025429;28;20045;-67
2022/11/21 07:16:35;;;;;;;33.28;17.60;;;;;;;3.68;100.00;100420.31;5012254;28;20363;-67
2022/11/21 07:19:01;;;;;;;32.35;15.73;;;;;;;3.63;100.00;100421.63;5016479;28;20057;-67
2022/11/21 07:21:28;;;;;;;33.97;15.73;;;;;;;3.68;100.00;100430.69;5016869;28;20053;-67
2022/11/21 07:23:54;;;;;;;34.15;16.67;;;;;;;3.76;100.00;100409.38;5011990;28;20490;-67
2022/11/21 07:26:20;;;;;;;30.58;15.98;;;;;;;3.79;100.00;100401.38;5020366;28;20049;-67
2022/11/21 07:28:47;;;;;;;33.08;17.08;;;;;;;3.76;100.00;100402.47;5008317;28;20053;-68
2022/11/21 07:31:13;;;;;;;34.53;16.48;;;;;;;3.79;100.00;100405.75;5009436;28;20068;-66
2022/11/21 07:33:42;;;;;;;35.75;17.40;;;;;;;3.74;100.00;100403.47;5017111;28;20061;-67
2022/11/21 07:36:09;;;;;;;35.08;16.42;;;;;;;3.71;100.00;100411.50;5019102;28;20072;-67
2022/11/21 07:38:35;;;;;;;34.67;16.83;;;;;;;3.78;100.00;100414.47;5018834;28;20127;-67
2022/11/21 07:41:02;;;;;;;34.20;17.83;;;;;;;3.76;100.00;100409.38;5000233;28;20421;-67
2022/11/21 07:43:28;;;;;;;31.58;17.60;;;;;;;3.79;100.00;100413.53;5014693;28;20061;-66
2022/11/21 07:45:55;;;;;;;33.58;17.70;;;;;;;3.83;100.00;100412.38;5018398;28;20049;-66
2022/11/21 07:48:21;;;;;;;30.60;15.98;;;;;;;3.83;100.00;100412.38;5023633;28;20058;-66
2022/11/21 07:50:48;;;;;;;32.53;16.40;;;;;;;3.80;100.00;100403.03;5022313;28;20046;-66
2022/11/21 07:53:14;;;;;;;27.25;14.85;;;;;;;3.82;100.00;100410.72;5018262;28;20080;-66
2022/11/21 07:55:41;;;;;;;30.73;16.08;;;;;;;3.81;100.00;100411.66;5022006;28;20413;-66
2022/11/21 07:58:10;;;;;;;28.95;15.38;;;;;;;3.92;100.00;100404.75;5014522;28;20049;-67
2022/11/21 08:00:39;;;;;;;30.05;15.75;;;;;;;3.90;100.00;100405.78;5024607;28;20057;-66
2022/11/21 08:03:06;;;;;;;32.35;16.52;;;;;;;3.92;100.00;100407.34;5013765;28;20068;-67
2022/11/21 08:05:36;;;;;;;30.88;15.48;;;;;;;3.98;100.00;100408.66;5016702;28;20086;-66
2022/11/21 08:08:04;;;;;;;32.53;16.25;;;;;;;4.00;100.00;100398.13;5018825;28;20049;-67
2022/11/21 08:10:31;;;;;;;31.25;16.38;;;;;;;4.06;100.00;100382.94;5008909;28;20054;-66
2022/11/21 08:12:58;;;;;;;30.17;14.45;;;;;;;4.07;100.00;100392.38;5024397;28;20049;-66
2022/11/21 08:15:24;;;;;;;28.48;15.75;;;;;;;4.01;100.00;100387.66;5006631;28;20057;-67
2022/11/21 08:17:50;;;;;;;26.75;14.23;;;;;;;4.07;100.00;100381.19;5021305;28;20060;-66
2022/11/21 08:20:17;;;;;;;28.48;15.15;;;;;;;4.07;100.00;100375.97;5013124;28;20053;-67
2022/11/21 08:22:43;;;;;;;32.13;16.98;;;;;;;4.09;100.00;100374.09;5012441;28;20586;-67
2022/11/21 08:25:10;;;;;;;26.45;15.05;;;;;;;4.23;100.00;100375.66;5026543;28;20048;-66
2022/11/21 08:27:38;;;;;;;33.15;16.92;;;;;;;4.30;100.00;100379.44;5013059;28;20057;-66
2022/11/21 08:30:06;;;;;;;31.08;17.05;;;;;;;4.31;100.00;100365.50;5027394;28;20049;-66
2022/11/21 08:32:33;;;;;;;35.17;18.42;;;;;;;4.28;100.00;100370.94;5018661;28;20056;-66
2022/11/21 08:34:59;;;;;;;34.72;16.98;;;;;;;4.31;100.00;100365.50;5028430;28;20049;-67
2022/11/21 08:37:28;;;;;;;41.08;19.85;;;;;;;4.34;100.00;100371.28;5022054;28;20049;-66
2022/11/21 08:39:57;;;;;;;43.03;20.42;;;;;;;4.33;100.00;100364.47;5024433;28;20085;-66
2022/11/21 08:42:24;;;;;;;43.55;19.60;;;;;;;4.37;100.00;100362.44;5022935;28;20069;-66
2022/11/21 08:44:51;;;;;;;43.33;19.02;;;;;;;4.38;100.00;100356.31;5020507;28;20399;-66
2022/11/21 08:47:19;;;;;;;52.28;21.50;;;;;;;4.41;100.00;100361.28;5018807;28;20050;-66
2022/11/21 08:49:46;;;;;;;45.65;21.08;;;;;;;4.45;100.00;100354.91;5012128;28;20559;-67
2022/11/21 08:52:13;;;;;;;47.40;20.95;;;;;;;4.44;100.00;100358.44;4990566;28;20745;-67
2022/11/21 08:54:40;;;;;;;47.25;20.45;;;;;;;4.44;100.00;100365.41;5024530;28;20045;-66
2022/11/21 08:57:06;;;;;;;47.53;20.83;;;;;;;4.41;100.00;100353.50;5015131;28;20064;-66
2022/11/21 08:59:33;;;;;;;43.33;18.48;;;;;;;4.47;100.00;100344.38;5022110;28;20057;-67
2022/11/21 09:01:59;;;;;;;45.45;18.70;;;;;;;4.52;100.00;100337.06;5011730;28;20053;-66
2022/11/21 09:04:26;;;;;;;44.45;19.25;;;;;;;4.55;100.00;100339.44;5018309;28;20064;-66
2022/11/21 09:06:52;;;;;;;45.25;19.10;;;;;;;4.55;100.00;100334.25;5012972;28;21140;-66
2022/11/21 09:09:19;;;;;;;39.00;17.55;;;;;;;4.56;100.00;100331.50;5008306;28;20334;-66
2022/11/21 09:11:50;;;;;;;46.83;18.95;;;;;;;4.57;100.00;100332.34;5019296;28;20049;-66
2022/11/21 09:19:47;;;;;;;54.03;20.30;;;;;;;4.67;100.00;100332.47;5008348;28;20045;-66
2022/11/21 09:22:13;;;;;;;55.45;19.27;;;;;;;4.71;100.00;100334.69;5020797;28;20042;-67
2022/11/21 09:24:40;;;;;;;42.45;17.67;;;;;;;4.74;100.00;100334.44;5011635;28;20103;-66
2022/11/21 09:27:06;;;;;;;42.13;17.90;;;;;;;4.79;100.00;100336.69;5022998;28;20058;-67
2022/11/21 09:29:32;;;;;;;43.40;17.42;;;;;;;4.79;100.00;100336.69;5006746;28;20053;-66
2022/11/21 09:31:59;;;;;;;41.17;18.60;;;;;;;4.85;100.00;100335.38;5009083;28;20057;-66
2022/11/21 09:34:25;;;;;;;48.65;18.38;;;;;;;4.86;100.00;100324.88;5022372;28;20541;-67
2022/11/21 09:36:53;;;;;;;46.60;17.65;;;;;;;4.88;100.00;100322.97;5012729;28;20453;-66
2022/11/21 09:39:20;;;;;;;51.97;17.23;;;;;;;4.87;100.00;100321.31;5003786;28;20087;-67
2022/11/21 09:42:18;;;;;;;50.53;18.40;;;;;;;4.94;100.00;100309.47;5014828;28;20050;-68
2022/11/21 09:45:02;;;;;;;53.20;16.48;;;;;;;4.90;100.00;100296.84;5000034;28;20049;-66
2022/11/21 09:47:31;;;;;;;36.17;17.25;;;;;;;4.94;100.00;100298.25;5008770;28;20053;-65
2022/11/21 09:50:15;;;;;;;46.88;17.85;;;;;;;4.97;100.00;100292.81;5010475;28;20056;-66
2022/11/21 09:53:05;;;;;;;35.08;16.52;;;;;;;5.08;100.00;100290.19;5025248;28;20482;-65
2022/11/21 09:55:40;;;;;;;41.08;16.42;;;;;;;5.06;100.00;100280.84;5014764;28;20049;-65
2022/11/21 09:58:20;;;;;;;42.33;17.90;;;;;;;5.15;100.00;100280.94;5016828;28;20053;-66
2022/11/21 10:00:50;;;;;;;45.45;18.15;;;;;;;5.20;100.00;100270.16;5013537;28;20097;-65
2022/11/21 10:03:18;;;;;;;48.38;18.23;;;;;;;5.23;100.00;100271.66;5009243;28;20060;-66
2022/11/21 10:06:10;;;;;;;34.38;16.25;;;;;;;5.28;100.00;100262.53;5015591;28;20033;-65
2022/11/21 10:09:06;;;;;;;40.42;17.65;;;;;;;5.39;100.00;100259.06;5011025;28;20049;-66
2022/11/21 10:14:53;;;;;;;35.47;16.77;;;;;;;5.53;100.00;100255.31;5009915;28;20137;-66
2022/11/21 10:17:30;;;;;;;40.88;18.02;;;;;;;5.48;100.00;100257.47;5015799;28;20104;-65
2022/11/21 10:20:15;;;;;;;39.90;17.10;;;;;;;5.50;100.00;100252.97;5022886;28;20063;-66
2022/11/21 10:23:00;;;;;;;42.03;19.92;;;;;;;5.58;100.00;100249.72;5018638;28;20053;-66
2022/11/21 10:25:32;;;;;;;41.70;19.73;;;;;;;5.52;100.00;100251.88;5013054;28;20536;-66
2022/11/21 10:28:21;;;;;;;38.40;18.35;;;;;;;5.46;100.00;100257.59;5019703;28;20521;-65
2022/11/21 10:30:51;;;;;;;43.08;19.77;;;;;;;5.60;100.00;100263.44;5007638;28;20064;-66
2022/11/21 10:33:26;;;;;;;48.00;21.30;;;;;;;5.53;100.00;100265.72;5021308;28;20111;-66
2022/11/21 10:35:58;;;;;;;50.05;21.48;;;;;;;5.56;100.00;100255.06;5018338;28;20425;-68
2022/11/21 10:38:28;;;;;;;53.28;23.52;;;;;;;5.65;100.00;100249.09;5023791;28;20141;-66
2022/11/21 10:41:20;;;;;;;45.22;21.50;;;;;;;5.63;100.00;100247.59;5022282;28;20094;-66
2022/11/21 10:46:53;;;;;;;45.35;19.92;;;;;;;5.77;100.00;100231.63;5018477;28;20907;-66
2022/11/21 10:49:20;;;;;;;46.10;21.55;;;;;;;5.73;100.00;100218.03;5012450;28;20045;-67
2022/11/21 10:52:06;;;;;;;36.65;17.58;;;;;;;5.87;100.00;100206.47;5021773;28;20061;-66
2022/11/21 10:55:01;;;;;;;41.92;19.27;;;;;;;5.91;100.00;100207.84;5027057;28;20048;-66
2022/11/21 10:57:32;;;;;;;50.45;20.50;;;;;;;5.91;100.00;100210.44;5021881;28;20049;-66
2022/11/21 11:00:14;;;;;;;36.95;18.73;;;;;;;5.98;100.00;100200.38;5005459;28;20490;-66
2022/11/21 11:03:04;;;;;;;41.70;19.50;;;;;;;5.99;100.00;100202.00;5010600;28;20050;-66
2022/11/21 11:05:33;;;;;;;43.40;20.08;;;;;;;6.01;100.00;100189.69;5014451;28;20045;-66
2022/11/21 11:08:10;;;;;;;40.45;19.10;;;;;;;6.03;100.00;100185.16;5011833;28;20054;-66
2022/11/21 11:10:42;;;;;;;39.20;19.95;;;;;;;6.09;100.00;100184.63;5007004;28;20057;-66
2022/11/21 11:16:19;;;;;;;45.63;20.25;;;;;;;6.27;100.00;100181.38;5012815;28;20091;-66
2022/11/21 11:18:53;;;;;;;41.33;18.77;;;;;;;6.33;100.00;100171.28;5025373;28;20045;-66
2022/11/21 11:21:22;;;;;;;42.78;19.90;;;;;;;6.42;100.00;100169.63;5010770;28;20057;-66
2022/11/21 11:23:50;;;;;;;44.47;20.65;;;;;;;6.51;100.00;100161.00;5019556;28;20425;-66
2022/11/21 11:26:24;;;;;;;39.38;19.33;;;;;;;6.58;100.00;100170.88;4993838;28;20050;-65
2022/11/21 11:28:51;;;;;;;43.47;19.67;;;;;;;6.62;100.00;100165.25;5013572;28;20490;-67
2022/11/21 11:31:17;;;;;;;36.70;18.30;;;;;;;6.69;100.00;100148.09;5021290;28;20049;-68
2022/11/21 11:33:47;;;;;;;39.90;19.50;;;;;;;6.79;100.00;100155.91;5018201;28;20049;-66
2022/11/21 11:36:26;;;;;;;39.17;19.40;;;;;;;6.82;100.00;100145.22;5017879;28;20112;-66
2022/11/21 11:38:56;;;;;;;40.10;19.67;;;;;;;6.86;100.00;100135.31;5008775;28;20081;-66